sensor_id;sensor_type;location;lat;lon;timestamp;temperature;humidity
12872;DHT22;6504;53.766;9.626;2023-02-28T00:00:41;3.60;99.90
12872;DHT22;6504;53.766;9.626;2023-02-28T00:03:09;3.60;99.90
12872;DHT22;6504;53.766;9.626;2023-02-28T00:05:37;3.50;99.90
12872;DHT22;6504;53.766;9.626;2023-02-28T00:08:07;3.50;99.90
12872;DHT22;6504;53.766;9.626;2023-02-28T00:10:35;3.50;99.90
12872;DHT22;6504;53.766;9.626;2023-02-28T00:13:05;3.60;99.90
12872;DHT22;6504;53.766;9.626;2023-02-28T00:15:34;3.60;99.90
12872;DHT22;6504;53.766;9.626;2023-02-28T00:18:02;3.60;99.90
12872;DHT22;6504;53.766;9.626;2023-02-28T00:20:30;3.60;99.90
12872;DHT22;6504;53.766;9.626;2023-02-28T00:22:58;3.60;99.90
12872;DHT22;6504;53.766;9.626;2023-02-28T00:25:28;3.60;99.90
12872;DHT22;6504;53.766;9.626;2023-02-28T00:27:56;3.60;99.90
12872;DHT22;6504;53.766;9.626;2023-02-28T00:30:24;3.60;99.90
12872;DHT22;6504;53.766;9.626;2023-02-28T00:32:52;3.60;99.90
12872;DHT22;6504;53.766;9.626;2023-02-28T00:35:20;3.60;99.90
12872;DHT22;6504;53.766;9.626;2023-02-28T00:37:48;3.60;99.90
12872;DHT22;6504;53.766;9.626;2023-02-28T00:40:17;3.60;99.90
12872;DHT22;6504;53.766;9.626;2023-02-28T00:42:46;3.60;99.90
12872;DHT22;6504;53.766;9.626;2023-02-28T00:45:15;3.60;99.90
12872;DHT22;6504;53.766;9.626;2023-02-28T00:47:43;3.60;99.90
12872;DHT22;6504;53.766;9.626;2023-02-28T00:50:11;3.50;99.90
12872;DHT22;6504;53.766;9.626;2023-02-28T00:52:39;3.50;99.90
12872;DHT22;6504;53.766;9.626;2023-02-28T00:55:08;3.60;99.90
12872;DHT22;6504;53.766;9.626;2023-02-28T00:57:36;3.60;99.90
12872;DHT22;6504;53.766;9.626;2023-02-28T01:00:07;3.60;99.90
12872;DHT22;6504;53.766;9.626;2023-02-28T01:02:35;3.50;99.90
12872;DHT22;6504;53.766;9.626;2023-02-28T01:05:04;3.50;99.90
12872;DHT22;6504;53.766;9.626;2023-02-28T01:07:32;3.50;99.90
12872;DHT22;6504;53.766;9.626;2023-02-28T01:10:00;3.50;99.90
12872;DHT22;6504;53.766;9.626;2023-02-28T01:12:28;3.50;99.90
12872;DHT22;6504;53.766;9.626;2023-02-28T01:14:56;3.50;99.90
12872;DHT22;6504;53.766;9.626;2023-02-28T01:17:26;3.50;99.90
12872;DHT22;6504;53.766;9.626;2023-02-28T01:19:54;3.50;99.90
12872;DHT22;6504;53.766;9.626;2023-02-28T01:22:23;3.50;99.90
12872;DHT22;6504;53.766;9.626;2023-02-28T01:24:51;3.50;99.90
12872;DHT22;6504;53.766;9.626;2023-02-28T01:27:19;3.50;99.90
12872;DHT22;6504;53.766;9.626;2023-02-28T01:29:47;3.50;99.90
12872;DHT22;6504;53.766;9.626;2023-02-28T01:32:15;3.50;99.90
12872;DHT22;6504;53.766;9.626;2023-02-28T01:34:46;3.50;99.90
12872;DHT22;6504;53.766;9.626;2023-02-28T01:37:14;3.50;99.90
12872;DHT22;6504;53.766;9.626;2023-02-28T01:39:42;3.50;99.90
12872;DHT22;6504;53.766;9.626;2023-02-28T01:42:10;3.50;99.90
12872;DHT22;6504;53.766;9.626;2023-02-28T01:45:18;3.50;99.90
12872;DHT22;6504;53.766;9.626;2023-02-28T01:47:48;3.50;99.90
12872;DHT22;6504;53.766;9.626;2023-02-28T01:50:21;3.40;99.90
12872;DHT22;6504;53.766;9.626;2023-02-28T01:52:51;3.50;99.90
12872;DHT22;6504;53.766;9.626;2023-02-28T01:55:22;3.50;99.90
12872;DHT22;6504;53.766;9.626;2023-02-28T01:57:57;3.40;99.90
12872;DHT22;6504;53.766;9.626;2023-02-28T02:00:27;3.40;99.90
12872;DHT22;6504;53.766;9.626;2023-02-28T02:02:58;3.40;99.90
12872;DHT22;6504;53.766;9.626;2023-02-28T02:05:30;3.40;99.90
12872;DHT22;6504;53.766;9.626;2023-02-28T02:08:02;3.40;99.90
12872;DHT22;6504;53.766;9.626;2023-02-28T02:10:33;3.40;99.90
12872;DHT22;6504;53.766;9.626;2023-02-28T02:13:19;3.40;99.90
12872;DHT22;6504;53.766;9.626;2023-02-28T02:15:56;3.40;99.90
12872;DHT22;6504;53.766;9.626;2023-02-28T02:18:34;3.40;99.90
12872;DHT22;6504;53.766;9.626;2023-02-28T02:21:56;3.40;99.90
12872;DHT22;6504;53.766;9.626;2023-02-28T02:25:07;3.40;99.90
12872;DHT22;6504;53.766;9.626;2023-02-28T02:28:04;3.30;99.90
12872;DHT22;6504;53.766;9.626;2023-02-28T02:31:06;3.30;99.90
12872;DHT22;6504;53.766;9.626;2023-02-28T02:34:08;3.30;99.90
12872;DHT22;6504;53.766;9.626;2023-02-28T02:36:42;3.30;99.90
12872;DHT22;6504;53.766;9.626;2023-02-28T02:39:19;3.30;99.90
12872;DHT22;6504;53.766;9.626;2023-02-28T02:41:52;3.30;99.90
12872;DHT22;6504;53.766;9.626;2023-02-28T02:44:25;3.30;99.90
12872;DHT22;6504;53.766;9.626;2023-02-28T02:46:58;3.30;99.90
12872;DHT22;6504;53.766;9.626;2023-02-28T02:49:31;3.30;99.90
12872;DHT22;6504;53.766;9.626;2023-02-28T02:52:02;3.20;99.90
12872;DHT22;6504;53.766;9.626;2023-02-28T02:54:34;3.20;99.90
12872;DHT22;6504;53.766;9.626;2023-02-28T02:57:05;3.20;99.90
12872;DHT22;6504;53.766;9.626;2023-02-28T02:59:36;3.20;99.90
12872;DHT22;6504;53.766;9.626;2023-02-28T03:02:08;3.20;99.90
12872;DHT22;6504;53.766;9.626;2023-02-28T03:04:43;3.20;99.90
12872;DHT22;6504;53.766;9.626;2023-02-28T03:07:13;3.20;99.90
12872;DHT22;6504;53.766;9.626;2023-02-28T03:09:49;3.20;99.90
12872;DHT22;6504;53.766;9.626;2023-02-28T03:12:18;3.20;99.90
12872;DHT22;6504;53.766;9.626;2023-02-28T03:14:55;3.20;99.90
12872;DHT22;6504;53.766;9.626;2023-02-28T03:17:31;3.20;99.90
12872;DHT22;6504;53.766;9.626;2023-02-28T03:20:11;3.20;99.90
12872;DHT22;6504;53.766;9.626;2023-02-28T03:22:48;3.20;99.90
12872;DHT22;6504;53.766;9.626;2023-02-28T03:25:27;3.20;99.90
12872;DHT22;6504;53.766;9.626;2023-02-28T03:28:03;3.20;99.90
12872;DHT22;6504;53.766;9.626;2023-02-28T03:30:39;3.20;99.90
12872;DHT22;6504;53.766;9.626;2023-02-28T03:33:12;3.20;99.90
12872;DHT22;6504;53.766;9.626;2023-02-28T03:35:48;3.20;99.90
12872;DHT22;6504;53.766;9.626;2023-02-28T03:38:20;3.20;99.90
12872;DHT22;6504;53.766;9.626;2023-02-28T03:40:51;3.20;99.90
12872;DHT22;6504;53.766;9.626;2023-02-28T03:43:25;3.20;99.90
12872;DHT22;6504;53.766;9.626;2023-02-28T03:45:55;3.20;99.90
12872;DHT22;6504;53.766;9.626;2023-02-28T03:48:27;3.20;99.90
12872;DHT22;6504;53.766;9.626;2023-02-28T03:51:00;3.20;99.90
12872;DHT22;6504;53.766;9.626;2023-02-28T03:53:32;3.20;99.90
12872;DHT22;6504;53.766;9.626;2023-02-28T03:56:05;3.20;99.90
12872;DHT22;6504;53.766;9.626;2023-02-28T03:58:38;3.20;99.90
12872;DHT22;6504;53.766;9.626;2023-02-28T04:01:13;3.20;99.90
12872;DHT22;6504;53.766;9.626;2023-02-28T04:03:43;3.20;99.90
12872;DHT22;6504;53.766;9.626;2023-02-28T04:06:16;3.20;99.90
12872;DHT22;6504;53.766;9.626;2023-02-28T04:08:45;3.10;99.90
12872;DHT22;6504;53.766;9.626;2023-02-28T04:11:20;3.10;99.90
12872;DHT22;6504;53.766;9.626;2023-02-28T04:13:48;3.10;99.90
12872;DHT22;6504;53.766;9.626;2023-02-28T04:16:17;3.10;99.90
12872;DHT22;6504;53.766;9.626;2023-02-28T04:19:00;3.10;99.90
12872;DHT22;6504;53.766;9.626;2023-02-28T04:21:32;3.10;99.90
12872;DHT22;6504;53.766;9.626;2023-02-28T04:24:01;3.10;99.90
12872;DHT22;6504;53.766;9.626;2023-02-28T04:26:29;3.10;99.90
12872;DHT22;6504;53.766;9.626;2023-02-28T04:28:58;3.10;99.90
12872;DHT22;6504;53.766;9.626;2023-02-28T04:31:26;3.10;99.90
12872;DHT22;6504;53.766;9.626;2023-02-28T04:33:55;3.10;99.90
12872;DHT22;6504;53.766;9.626;2023-02-28T04:36:23;3.10;99.90
12872;DHT22;6504;53.766;9.626;2023-02-28T04:38:53;3.10;99.90
12872;DHT22;6504;53.766;9.626;2023-02-28T04:41:22;3.10;99.90
12872;DHT22;6504;53.766;9.626;2023-02-28T04:43:51;3.10;99.90
12872;DHT22;6504;53.766;9.626;2023-02-28T04:46:19;3.10;99.90
12872;DHT22;6504;53.766;9.626;2023-02-28T04:48:48;3.10;99.90
12872;DHT22;6504;53.766;9.626;2023-02-28T04:51:17;3.10;99.90
12872;DHT22;6504;53.766;9.626;2023-02-28T04:53:46;3.10;99.90
12872;DHT22;6504;53.766;9.626;2023-02-28T04:56:17;3.10;99.90
12872;DHT22;6504;53.766;9.626;2023-02-28T04:58:45;3.10;99.90
12872;DHT22;6504;53.766;9.626;2023-02-28T05:01:20;3.10;99.90
12872;DHT22;6504;53.766;9.626;2023-02-28T05:03:49;3.10;99.90
12872;DHT22;6504;53.766;9.626;2023-02-28T05:06:17;3.10;99.90
12872;DHT22;6504;53.766;9.626;2023-02-28T05:08:47;3.10;99.90
12872;DHT22;6504;53.766;9.626;2023-02-28T05:11:18;3.00;99.90
12872;DHT22;6504;53.766;9.626;2023-02-28T05:13:47;3.00;99.90
12872;DHT22;6504;53.766;9.626;2023-02-28T05:16:15;3.00;99.90
12872;DHT22;6504;53.766;9.626;2023-02-28T05:18:44;3.00;99.90
12872;DHT22;6504;53.766;9.626;2023-02-28T05:21:24;3.00;99.90
12872;DHT22;6504;53.766;9.626;2023-02-28T05:23:53;3.00;99.90
12872;DHT22;6504;53.766;9.626;2023-02-28T05:26:23;3.00;99.90
12872;DHT22;6504;53.766;9.626;2023-02-28T05:28:51;2.90;99.90
12872;DHT22;6504;53.766;9.626;2023-02-28T05:31:19;2.90;99.90
12872;DHT22;6504;53.766;9.626;2023-02-28T05:33:48;3.00;99.90
12872;DHT22;6504;53.766;9.626;2023-02-28T05:36:16;3.00;99.90
12872;DHT22;6504;53.766;9.626;2023-02-28T05:38:46;3.00;99.90
12872;DHT22;6504;53.766;9.626;2023-02-28T05:41:15;3.00;99.90
12872;DHT22;6504;53.766;9.626;2023-02-28T05:43:45;3.00;99.90
12872;DHT22;6504;53.766;9.626;2023-02-28T05:46:13;3.00;99.90
12872;DHT22;6504;53.766;9.626;2023-02-28T05:48:42;3.00;99.90
12872;DHT22;6504;53.766;9.626;2023-02-28T05:51:13;3.00;99.90
12872;DHT22;6504;53.766;9.626;2023-02-28T05:53:41;3.00;99.90
12872;DHT22;6504;53.766;9.626;2023-02-28T05:56:09;3.00;99.90
12872;DHT22;6504;53.766;9.626;2023-02-28T05:58:37;3.00;99.90
12872;DHT22;6504;53.766;9.626;2023-02-28T06:01:25;2.90;99.90
12872;DHT22;6504;53.766;9.626;2023-02-28T06:03:58;2.90;99.90
12872;DHT22;6504;53.766;9.626;2023-02-28T06:06:26;2.80;99.90
12872;DHT22;6504;53.766;9.626;2023-02-28T06:08:54;2.80;99.90
12872;DHT22;6504;53.766;9.626;2023-02-28T06:11:22;2.80;99.90
12872;DHT22;6504;53.766;9.626;2023-02-28T06:13:55;2.80;99.90
12872;DHT22;6504;53.766;9.626;2023-02-28T06:16:25;2.80;99.90
12872;DHT22;6504;53.766;9.626;2023-02-28T06:18:53;2.80;99.90
12872;DHT22;6504;53.766;9.626;2023-02-28T06:21:23;2.80;99.90
12872;DHT22;6504;53.766;9.626;2023-02-28T06:23:51;2.70;99.90
12872;DHT22;6504;53.766;9.626;2023-02-28T06:26:19;2.70;99.90
12872;DHT22;6504;53.766;9.626;2023-02-28T06:28:47;2.70;99.90
12872;DHT22;6504;53.766;9.626;2023-02-28T06:31:16;2.70;99.90
12872;DHT22;6504;53.766;9.626;2023-02-28T06:33:47;2.60;99.90
12872;DHT22;6504;53.766;9.626;2023-02-28T06:36:16;2.60;99.90
12872;DHT22;6504;53.766;9.626;2023-02-28T06:38:44;2.60;99.90
12872;DHT22;6504;53.766;9.626;2023-02-28T06:41:12;2.60;99.90
12872;DHT22;6504;53.766;9.626;2023-02-28T06:43:42;2.50;99.90
12872;DHT22;6504;53.766;9.626;2023-02-28T06:46:12;2.50;99.90
12872;DHT22;6504;53.766;9.626;2023-02-28T06:48:42;2.50;99.90
12872;DHT22;6504;53.766;9.626;2023-02-28T06:51:14;2.40;99.90
12872;DHT22;6504;53.766;9.626;2023-02-28T06:53:42;2.40;99.90
12872;DHT22;6504;53.766;9.626;2023-02-28T06:56:12;2.40;99.90
12872;DHT22;6504;53.766;9.626;2023-02-28T06:58:41;2.30;99.90
12872;DHT22;6504;53.766;9.626;2023-02-28T07:01:09;2.20;99.90
12872;DHT22;6504;53.766;9.626;2023-02-28T07:03:37;2.20;99.90
12872;DHT22;6504;53.766;9.626;2023-02-28T07:06:05;2.10;99.90
12872;DHT22;6504;53.766;9.626;2023-02-28T07:08:35;2.10;99.90
12872;DHT22;6504;53.766;9.626;2023-02-28T07:11:04;2.00;99.90
12872;DHT22;6504;53.766;9.626;2023-02-28T07:13:32;2.00;99.90
12872;DHT22;6504;53.766;9.626;2023-02-28T07:16:01;2.00;99.90
12872;DHT22;6504;53.766;9.626;2023-02-28T07:18:31;2.00;99.90
12872;DHT22;6504;53.766;9.626;2023-02-28T07:21:02;2.00;99.90
12872;DHT22;6504;53.766;9.626;2023-02-28T07:23:30;2.00;99.90
12872;DHT22;6504;53.766;9.626;2023-02-28T07:25:59;2.00;99.90
12872;DHT22;6504;53.766;9.626;2023-02-28T07:28:27;2.00;99.90
12872;DHT22;6504;53.766;9.626;2023-02-28T07:30:55;2.00;99.90
12872;DHT22;6504;53.766;9.626;2023-02-28T07:33:24;2.00;99.90
12872;DHT22;6504;53.766;9.626;2023-02-28T07:35:52;2.00;99.90
12872;DHT22;6504;53.766;9.626;2023-02-28T07:38:20;2.00;99.90
12872;DHT22;6504;53.766;9.626;2023-02-28T07:40:48;2.00;99.90
12872;DHT22;6504;53.766;9.626;2023-02-28T07:43:17;1.90;99.90
12872;DHT22;6504;53.766;9.626;2023-02-28T07:45:45;1.90;99.90
12872;DHT22;6504;53.766;9.626;2023-02-28T07:48:13;1.90;99.90
12872;DHT22;6504;53.766;9.626;2023-02-28T07:50:41;1.90;99.90
12872;DHT22;6504;53.766;9.626;2023-02-28T07:53:09;1.90;99.90
12872;DHT22;6504;53.766;9.626;2023-02-28T07:55:37;1.90;99.90
12872;DHT22;6504;53.766;9.626;2023-02-28T07:58:05;1.90;99.90
12872;DHT22;6504;53.766;9.626;2023-02-28T08:00:34;2.00;99.90
12872;DHT22;6504;53.766;9.626;2023-02-28T08:03:02;2.00;99.90
12872;DHT22;6504;53.766;9.626;2023-02-28T08:05:30;2.00;99.90
12872;DHT22;6504;53.766;9.626;2023-02-28T08:07:58;2.10;99.90
12872;DHT22;6504;53.766;9.626;2023-02-28T08:10:26;2.10;99.90
12872;DHT22;6504;53.766;9.626;2023-02-28T08:12:54;2.10;99.90
12872;DHT22;6504;53.766;9.626;2023-02-28T08:15:22;2.10;99.90
12872;DHT22;6504;53.766;9.626;2023-02-28T08:17:52;2.20;99.90
12872;DHT22;6504;53.766;9.626;2023-02-28T08:20:20;2.20;99.90
12872;DHT22;6504;53.766;9.626;2023-02-28T08:22:48;2.20;99.90
12872;DHT22;6504;53.766;9.626;2023-02-28T08:25:16;2.20;99.90
12872;DHT22;6504;53.766;9.626;2023-02-28T08:27:44;2.20;99.90
12872;DHT22;6504;53.766;9.626;2023-02-28T08:30:13;2.20;99.90
12872;DHT22;6504;53.766;9.626;2023-02-28T08:32:42;2.30;99.90
12872;DHT22;6504;53.766;9.626;2023-02-28T08:35:11;2.30;99.90
12872;DHT22;6504;53.766;9.626;2023-02-28T08:37:39;2.40;99.90
12872;DHT22;6504;53.766;9.626;2023-02-28T08:40:09;2.40;99.90
12872;DHT22;6504;53.766;9.626;2023-02-28T08:42:37;2.40;99.90
12872;DHT22;6504;53.766;9.626;2023-02-28T08:45:06;2.50;99.90
12872;DHT22;6504;53.766;9.626;2023-02-28T08:47:34;2.50;99.90
12872;DHT22;6504;53.766;9.626;2023-02-28T08:50:02;2.50;99.90
12872;DHT22;6504;53.766;9.626;2023-02-28T08:52:32;2.60;99.90
12872;DHT22;6504;53.766;9.626;2023-02-28T08:55:00;2.60;99.90
12872;DHT22;6504;53.766;9.626;2023-02-28T08:57:28;2.70;99.90
12872;DHT22;6504;53.766;9.626;2023-02-28T08:59:56;2.70;99.90
12872;DHT22;6504;53.766;9.626;2023-02-28T09:02:24;2.80;99.90
12872;DHT22;6504;53.766;9.626;2023-02-28T09:04:52;2.80;99.90
12872;DHT22;6504;53.766;9.626;2023-02-28T09:07:20;2.90;99.90
12872;DHT22;6504;53.766;9.626;2023-02-28T09:09:49;2.90;99.90
12872;DHT22;6504;53.766;9.626;2023-02-28T09:12:26;3.00;99.90
12872;DHT22;6504;53.766;9.626;2023-02-28T09:14:55;3.00;99.90
12872;DHT22;6504;53.766;9.626;2023-02-28T09:17:23;3.10;99.90
12872;DHT22;6504;53.766;9.626;2023-02-28T09:19:56;3.10;99.90
12872;DHT22;6504;53.766;9.626;2023-02-28T09:22:24;3.20;99.90
12872;DHT22;6504;53.766;9.626;2023-02-28T09:24:54;3.20;99.90
12872;DHT22;6504;53.766;9.626;2023-02-28T09:27:22;3.30;99.90
12872;DHT22;6504;53.766;9.626;2023-02-28T09:29:50;3.30;99.90
12872;DHT22;6504;53.766;9.626;2023-02-28T09:32:18;3.30;99.90
12872;DHT22;6504;53.766;9.626;2023-02-28T09:34:46;3.40;99.90
12872;DHT22;6504;53.766;9.626;2023-02-28T09:37:14;3.50;99.90
12872;DHT22;6504;53.766;9.626;2023-02-28T09:39:42;3.50;99.90
12872;DHT22;6504;53.766;9.626;2023-02-28T09:42:18;3.50;99.90
12872;DHT22;6504;53.766;9.626;2023-02-28T09:44:50;3.60;99.90
12872;DHT22;6504;53.766;9.626;2023-02-28T09:47:25;3.60;99.90
12872;DHT22;6504;53.766;9.626;2023-02-28T09:49:56;3.60;99.90
12872;DHT22;6504;53.766;9.626;2023-02-28T09:52:29;3.70;99.90
12872;DHT22;6504;53.766;9.626;2023-02-28T09:55:04;3.70;99.90
12872;DHT22;6504;53.766;9.626;2023-02-28T09:57:46;3.80;99.90
12872;DHT22;6504;53.766;9.626;2023-02-28T10:00:18;3.80;99.90
12872;DHT22;6504;53.766;9.626;2023-02-28T10:02:54;3.80;99.90
12872;DHT22;6504;53.766;9.626;2023-02-28T10:05:29;3.90;99.90
12872;DHT22;6504;53.766;9.626;2023-02-28T10:08:03;3.90;99.90
12872;DHT22;6504;53.766;9.626;2023-02-28T10:10:39;4.00;99.90
12872;DHT22;6504;53.766;9.626;2023-02-28T10:13:17;4.00;99.90
12872;DHT22;6504;53.766;9.626;2023-02-28T10:15:51;4.10;99.90
12872;DHT22;6504;53.766;9.626;2023-02-28T10:18:23;4.10;99.90
12872;DHT22;6504;53.766;9.626;2023-02-28T10:20:53;4.10;99.90
12872;DHT22;6504;53.766;9.626;2023-02-28T10:23:26;4.20;99.90
12872;DHT22;6504;53.766;9.626;2023-02-28T10:25:59;4.20;99.90
12872;DHT22;6504;53.766;9.626;2023-02-28T10:28:30;4.30;99.90
12872;DHT22;6504;53.766;9.626;2023-02-28T10:30:58;4.30;99.90
12872;DHT22;6504;53.766;9.626;2023-02-28T10:33:30;4.30;99.90
12872;DHT22;6504;53.766;9.626;2023-02-28T10:35:58;4.40;99.90
12872;DHT22;6504;53.766;9.626;2023-02-28T10:38:31;4.50;99.90
12872;DHT22;6504;53.766;9.626;2023-02-28T10:41:07;4.50;99.90
12872;DHT22;6504;53.766;9.626;2023-02-28T10:43:38;4.60;99.90
12872;DHT22;6504;53.766;9.626;2023-02-28T10:46:13;4.60;99.90
12872;DHT22;6504;53.766;9.626;2023-02-28T10:48:44;4.70;99.90
12872;DHT22;6504;53.766;9.626;2023-02-28T10:51:16;4.70;99.90
12872;DHT22;6504;53.766;9.626;2023-02-28T10:53:48;4.70;99.90
12872;DHT22;6504;53.766;9.626;2023-02-28T10:56:28;4.80;99.90
12872;DHT22;6504;53.766;9.626;2023-02-28T10:59:00;4.80;99.90
12872;DHT22;6504;53.766;9.626;2023-02-28T11:01:36;4.90;99.90
12872;DHT22;6504;53.766;9.626;2023-02-28T11:04:17;4.90;99.90
12872;DHT22;6504;53.766;9.626;2023-02-28T11:06:46;5.00;99.90
12872;DHT22;6504;53.766;9.626;2023-02-28T11:09:19;5.00;99.90
12872;DHT22;6504;53.766;9.626;2023-02-28T11:11:50;5.00;99.90
12872;DHT22;6504;53.766;9.626;2023-02-28T11:14:23;5.00;99.90
12872;DHT22;6504;53.766;9.626;2023-02-28T11:16:52;5.00;99.90
12872;DHT22;6504;53.766;9.626;2023-02-28T11:19:25;5.10;99.90
12872;DHT22;6504;53.766;9.626;2023-02-28T11:21:57;5.10;99.90
12872;DHT22;6504;53.766;9.626;2023-02-28T11:24:27;5.20;99.90
12872;DHT22;6504;53.766;9.626;2023-02-28T11:26:57;5.30;99.90
12872;DHT22;6504;53.766;9.626;2023-02-28T11:29:28;5.30;99.90
12872;DHT22;6504;53.766;9.626;2023-02-28T11:32:12;5.30;99.90
12872;DHT22;6504;53.766;9.626;2023-02-28T11:34:41;5.30;99.90
12872;DHT22;6504;53.766;9.626;2023-02-28T11:37:15;5.30;99.90
12872;DHT22;6504;53.766;9.626;2023-02-28T11:39:44;5.30;99.90
12872;DHT22;6504;53.766;9.626;2023-02-28T11:42:40;5.30;99.90
12872;DHT22;6504;53.766;9.626;2023-02-28T11:45:22;5.30;99.90
12872;DHT22;6504;53.766;9.626;2023-02-28T11:47:59;5.40;99.90
12872;DHT22;6504;53.766;9.626;2023-02-28T11:50:42;5.50;99.90
12872;DHT22;6504;53.766;9.626;2023-02-28T11:53:19;5.50;99.90
12872;DHT22;6504;53.766;9.626;2023-02-28T11:55:56;5.60;99.90
12872;DHT22;6504;53.766;9.626;2023-02-28T11:58:33;5.60;99.90
12872;DHT22;6504;53.766;9.626;2023-02-28T12:01:19;5.70;99.90
12872;DHT22;6504;53.766;9.626;2023-02-28T12:04:01;5.70;99.90
12872;DHT22;6504;53.766;9.626;2023-02-28T12:06:38;5.80;99.90
12872;DHT22;6504;53.766;9.626;2023-02-28T12:09:29;5.80;99.90
12872;DHT22;6504;53.766;9.626;2023-02-28T12:12:10;5.80;99.90
12872;DHT22;6504;53.766;9.626;2023-02-28T12:14:52;5.80;99.90
12872;DHT22;6504;53.766;9.626;2023-02-28T12:17:38;5.80;99.90
12872;DHT22;6504;53.766;9.626;2023-02-28T12:20:17;5.90;99.90
12872;DHT22;6504;53.766;9.626;2023-02-28T12:22:53;5.90;99.90
12872;DHT22;6504;53.766;9.626;2023-02-28T12:28:35;6.00;99.90
12872;DHT22;6504;53.766;9.626;2023-02-28T12:31:10;6.10;99.90
12872;DHT22;6504;53.766;9.626;2023-02-28T12:33:46;6.20;99.90
12872;DHT22;6504;53.766;9.626;2023-02-28T12:36:17;6.20;99.90
12872;DHT22;6504;53.766;9.626;2023-02-28T12:38:50;6.30;99.90
12872;DHT22;6504;53.766;9.626;2023-02-28T12:41:27;6.30;99.90
12872;DHT22;6504;53.766;9.626;2023-02-28T12:44:01;6.30;99.90
12872;DHT22;6504;53.766;9.626;2023-02-28T12:46:33;6.40;99.90
12872;DHT22;6504;53.766;9.626;2023-02-28T12:49:09;6.40;99.90
12872;DHT22;6504;53.766;9.626;2023-02-28T12:51:38;6.40;99.90
12872;DHT22;6504;53.766;9.626;2023-02-28T12:54:13;6.50;99.90
12872;DHT22;6504;53.766;9.626;2023-02-28T12:56:46;6.50;99.90
12872;DHT22;6504;53.766;9.626;2023-02-28T12:59:23;6.50;99.90
12872;DHT22;6504;53.766;9.626;2023-02-28T13:05:07;6.60;99.90
12872;DHT22;6504;53.766;9.626;2023-02-28T13:08:02;6.70;99.90
12872;DHT22;6504;53.766;9.626;2023-02-28T13:10:39;6.70;99.90
12872;DHT22;6504;53.766;9.626;2023-02-28T13:13:14;6.70;99.90
12872;DHT22;6504;53.766;9.626;2023-02-28T13:16:01;6.80;99.90
12872;DHT22;6504;53.766;9.626;2023-02-28T13:18:35;6.80;99.90
12872;DHT22;6504;53.766;9.626;2023-02-28T13:21:09;6.90;99.90
12872;DHT22;6504;53.766;9.626;2023-02-28T13:24:02;6.90;99.90
12872;DHT22;6504;53.766;9.626;2023-02-28T13:29:37;7.10;99.90
12872;DHT22;6504;53.766;9.626;2023-02-28T13:32:29;7.20;99.90
12872;DHT22;6504;53.766;9.626;2023-02-28T13:38:34;7.40;99.90
12872;DHT22;6504;53.766;9.626;2023-02-28T13:41:41;7.50;99.90
12872;DHT22;6504;53.766;9.626;2023-02-28T13:44:11;7.60;99.90
12872;DHT22;6504;53.766;9.626;2023-02-28T13:49:45;7.70;99.90
12872;DHT22;6504;53.766;9.626;2023-02-28T13:52:17;7.80;99.90
12872;DHT22;6504;53.766;9.626;2023-02-28T13:55:03;7.80;99.90
12872;DHT22;6504;53.766;9.626;2023-02-28T13:57:52;7.80;99.90
12872;DHT22;6504;53.766;9.626;2023-02-28T14:00:35;7.90;99.90
12872;DHT22;6504;53.766;9.626;2023-02-28T14:03:25;7.90;99.90
12872;DHT22;6504;53.766;9.626;2023-02-28T14:06:10;7.90;99.90
12872;DHT22;6504;53.766;9.626;2023-02-28T14:08:51;8.00;99.90
12872;DHT22;6504;53.766;9.626;2023-02-28T14:11:30;8.00;99.90
12872;DHT22;6504;53.766;9.626;2023-02-28T14:14:00;8.10;99.90
12872;DHT22;6504;53.766;9.626;2023-02-28T14:16:37;8.10;99.90
12872;DHT22;6504;53.766;9.626;2023-02-28T14:19:12;8.10;99.90
12872;DHT22;6504;53.766;9.626;2023-02-28T14:21:50;8.20;99.90
12872;DHT22;6504;53.766;9.626;2023-02-28T14:24:46;8.20;99.90
12872;DHT22;6504;53.766;9.626;2023-02-28T14:27:28;8.20;99.90
12872;DHT22;6504;53.766;9.626;2023-02-28T14:33:25;8.20;99.90
12872;DHT22;6504;53.766;9.626;2023-02-28T14:36:06;8.30;99.90
12872;DHT22;6504;53.766;9.626;2023-02-28T14:38:40;8.30;99.90
12872;DHT22;6504;53.766;9.626;2023-02-28T14:41:17;8.30;99.90
12872;DHT22;6504;53.766;9.626;2023-02-28T14:43:54;8.30;99.90
12872;DHT22;6504;53.766;9.626;2023-02-28T14:46:25;8.30;99.90
12872;DHT22;6504;53.766;9.626;2023-02-28T14:48:55;8.30;99.90
12872;DHT22;6504;53.766;9.626;2023-02-28T14:51:23;8.30;99.90
12872;DHT22;6504;53.766;9.626;2023-02-28T14:53:57;8.30;99.90
12872;DHT22;6504;53.766;9.626;2023-02-28T14:56:30;8.40;99.90
12872;DHT22;6504;53.766;9.626;2023-02-28T14:59:02;8.40;99.90
12872;DHT22;6504;53.766;9.626;2023-02-28T15:01:31;8.40;99.90
12872;DHT22;6504;53.766;9.626;2023-02-28T15:04:02;8.40;99.90
12872;DHT22;6504;53.766;9.626;2023-02-28T15:06:31;8.50;99.90
12872;DHT22;6504;53.766;9.626;2023-02-28T15:09:10;8.50;99.90
12872;DHT22;6504;53.766;9.626;2023-02-28T15:11:39;8.50;99.90
12872;DHT22;6504;53.766;9.626;2023-02-28T15:14:15;8.50;99.90
12872;DHT22;6504;53.766;9.626;2023-02-28T15:16:47;8.50;99.90
12872;DHT22;6504;53.766;9.626;2023-02-28T15:19:21;8.60;99.90
12872;DHT22;6504;53.766;9.626;2023-02-28T15:21:54;8.60;99.90
12872;DHT22;6504;53.766;9.626;2023-02-28T15:24:30;8.60;99.90
12872;DHT22;6504;53.766;9.626;2023-02-28T15:27:04;8.60;99.90
12872;DHT22;6504;53.766;9.626;2023-02-28T15:29:43;8.60;99.90
12872;DHT22;6504;53.766;9.626;2023-02-28T15:32:24;8.60;99.90
12872;DHT22;6504;53.766;9.626;2023-02-28T15:34:53;8.60;99.90
12872;DHT22;6504;53.766;9.626;2023-02-28T15:37:30;8.70;99.90
12872;DHT22;6504;53.766;9.626;2023-02-28T15:40:11;8.70;99.90
12872;DHT22;6504;53.766;9.626;2023-02-28T15:42:40;8.70;99.90
12872;DHT22;6504;53.766;9.626;2023-02-28T15:45:33;8.60;99.90
12872;DHT22;6504;53.766;9.626;2023-02-28T15:48:05;8.60;99.90
12872;DHT22;6504;53.766;9.626;2023-02-28T15:50:40;8.50;99.90
12872;DHT22;6504;53.766;9.626;2023-02-28T15:53:13;8.40;99.90
12872;DHT22;6504;53.766;9.626;2023-02-28T15:55:42;8.40;99.90
12872;DHT22;6504;53.766;9.626;2023-02-28T15:58:12;8.30;99.90
12872;DHT22;6504;53.766;9.626;2023-02-28T16:00:43;8.30;99.90
12872;DHT22;6504;53.766;9.626;2023-02-28T16:03:26;8.20;99.90
12872;DHT22;6504;53.766;9.626;2023-02-28T16:06:23;8.20;99.90
12872;DHT22;6504;53.766;9.626;2023-02-28T16:08:52;8.10;99.90
12872;DHT22;6504;53.766;9.626;2023-02-28T16:11:21;8.00;99.90
12872;DHT22;6504;53.766;9.626;2023-02-28T16:13:50;8.00;99.90
12872;DHT22;6504;53.766;9.626;2023-02-28T16:16:22;7.90;99.90
12872;DHT22;6504;53.766;9.626;2023-02-28T16:18:51;7.90;99.90
12872;DHT22;6504;53.766;9.626;2023-02-28T16:21:19;7.80;99.90
12872;DHT22;6504;53.766;9.626;2023-02-28T16:23:47;7.80;99.90
12872;DHT22;6504;53.766;9.626;2023-02-28T16:26:20;7.70;99.90
12872;DHT22;6504;53.766;9.626;2023-02-28T16:28:49;7.70;99.90
12872;DHT22;6504;53.766;9.626;2023-02-28T16:31:17;7.60;99.90
12872;DHT22;6504;53.766;9.626;2023-02-28T16:33:46;7.50;99.90
12872;DHT22;6504;53.766;9.626;2023-02-28T16:36:17;7.50;99.90
12872;DHT22;6504;53.766;9.626;2023-02-28T16:38:46;7.40;99.90
12872;DHT22;6504;53.766;9.626;2023-02-28T16:41:17;7.30;99.90
12872;DHT22;6504;53.766;9.626;2023-02-28T16:43:48;7.20;99.90
12872;DHT22;6504;53.766;9.626;2023-02-28T16:46:16;7.20;99.90
12872;DHT22;6504;53.766;9.626;2023-02-28T16:48:47;7.10;99.90
12872;DHT22;6504;53.766;9.626;2023-02-28T16:51:18;7.00;99.90
12872;DHT22;6504;53.766;9.626;2023-02-28T16:53:46;7.00;99.90
12872;DHT22;6504;53.766;9.626;2023-02-28T16:56:17;6.90;99.90